createdAt,value
2018-01-26T00:02:26.444Z,61.96
2018-01-26T00:04:54.957Z,59.87
2018-01-26T00:07:23.422Z,59.39
2018-01-26T00:09:51.837Z,59.06
2018-01-26T00:12:20.360Z,59.73
2018-01-26T00:14:48.917Z,59.81
2018-01-26T00:17:17.381Z,58.59
2018-01-26T00:19:45.791Z,58.40
2018-01-26T00:22:14.266Z,58.44
2018-01-26T00:24:42.785Z,58.33
2018-01-26T00:27:11.265Z,58.75
2018-01-26T00:29:39.777Z,58.29
2018-01-26T00:32:08.232Z,58.05
2018-01-26T00:34:36.760Z,58.11
2018-01-26T00:37:05.241Z,58.50
2018-01-26T00:39:33.666Z,58.22
2018-01-26T00:42:02.176Z,58.85
2018-01-26T00:44:30.592Z,58.45
2018-01-26T00:46:59.053Z,58.69
2018-01-26T00:49:27.477Z,58.52
2018-01-26T00:51:55.928Z,58.80
2018-01-26T00:54:24.341Z,58.39
2018-01-26T00:56:52.771Z,60.55
2018-01-26T00:59:21.237Z,58.87
2018-01-26T01:01:49.665Z,59.22
2018-01-26T01:04:18.115Z,60.78
2018-01-26T01:06:46.675Z,62.31
2018-01-26T01:09:15.253Z,63.67
2018-01-26T01:11:43.685Z,63.38
2018-01-26T01:14:12.212Z,63.67
2018-01-26T01:16:40.758Z,63.26
2018-01-26T01:19:09.212Z,62.65
2018-01-26T01:21:37.664Z,63.63
2018-01-26T01:24:06.145Z,63.61
2018-01-26T01:26:34.604Z,64.03
2018-01-26T01:29:03.131Z,64.45
2018-01-26T01:31:31.521Z,63.63
2018-01-26T01:33:59.937Z,62.78
2018-01-26T01:36:28.398Z,63.57
2018-01-26T01:38:56.814Z,64.71
2018-01-26T01:41:25.276Z,63.97
2018-01-26T01:43:53.692Z,65.40
2018-01-26T01:46:22.120Z,64.64
2018-01-26T01:49:02.364Z,63.55
2018-01-26T01:51:30.813Z,63.07
2018-01-26T01:53:59.264Z,61.59
2018-01-26T01:56:27.731Z,61.63
2018-01-26T01:58:56.251Z,61.13
2018-01-26T02:01:24.777Z,60.45
2018-01-26T02:03:53.197Z,60.43
2018-01-26T02:06:21.713Z,60.09
2018-01-26T02:08:50.209Z,60.53
2018-01-26T02:11:18.664Z,59.88
2018-01-26T02:13:47.117Z,59.79
2018-01-26T02:16:15.576Z,60.59
2018-01-26T02:18:44.064Z,60.31
2018-01-26T02:21:12.545Z,59.96
2018-01-26T02:23:41.022Z,60.06
2018-01-26T02:26:09.461Z,62.64
2018-01-26T02:28:37.939Z,63.45
2018-01-26T02:31:06.411Z,61.63
2018-01-26T02:33:34.874Z,62.26
2018-01-26T02:36:03.359Z,63.59
2018-01-26T02:38:31.816Z,63.40
2018-01-26T02:41:00.256Z,62.20
2018-01-26T02:43:28.765Z,64.24
2018-01-26T02:45:57.185Z,62.73
2018-01-26T02:48:25.656Z,65.74
2018-01-26T02:50:54.118Z,64.25
2018-01-26T02:53:22.606Z,64.21
2018-01-26T02:55:51.045Z,63.66
2018-01-26T02:58:19.571Z,63.73
2018-01-26T03:00:48.020Z,64.26
2018-01-26T03:03:16.533Z,65.03
2018-01-26T03:05:45.040Z,65.39
2018-01-26T03:08:13.465Z,65.33
2018-01-26T03:10:41.993Z,64.73
2018-01-26T03:13:10.522Z,64.46
2018-01-26T03:15:39.081Z,64.04
2018-01-26T03:18:07.520Z,62.36
2018-01-26T03:20:35.972Z,61.58
2018-01-26T03:23:04.412Z,62.04
2018-01-26T03:25:32.928Z,61.46
2018-01-26T03:28:01.351Z,61.01
2018-01-26T03:30:29.870Z,60.80
2018-01-26T03:32:58.333Z,60.67
2018-01-26T03:35:26.752Z,60.56
2018-01-26T03:37:55.193Z,60.81
2018-01-26T03:40:23.697Z,61.51
2018-01-26T03:42:52.122Z,60.47
2018-01-26T03:45:20.641Z,60.71
2018-01-26T03:47:49.101Z,60.15
2018-01-26T03:50:17.564Z,60.41
2018-01-26T03:52:45.972Z,59.90
2018-01-26T03:55:14.432Z,60.01
2018-01-26T03:57:42.845Z,60.19
2018-01-26T04:00:11.266Z,60.03
2018-01-26T04:02:39.776Z,59.89
2018-01-26T04:05:08.221Z,59.68
2018-01-26T04:07:36.668Z,60.32
2018-01-26T04:10:05.066Z,60.29
2018-01-26T04:12:33.581Z,60.23
2018-01-26T04:15:02.053Z,60.41
2018-01-26T04:17:30.524Z,60.49
2018-01-26T04:19:58.941Z,61.35
2018-01-26T04:22:27.353Z,62.96
2018-01-26T04:24:55.819Z,62.85
2018-01-26T04:27:24.247Z,62.85
2018-01-26T04:29:52.717Z,62.55
2018-01-26T04:32:21.146Z,62.07
2018-01-26T04:34:49.641Z,62.79
2018-01-26T04:37:18.089Z,61.29
2018-01-26T04:39:46.625Z,62.76
2018-01-26T04:42:15.089Z,61.43
2018-01-26T04:44:43.530Z,61.28
2018-01-26T04:47:12.005Z,60.80
2018-01-26T04:49:40.434Z,61.21
2018-01-26T04:52:08.872Z,61.52
2018-01-26T04:54:37.317Z,62.93
2018-01-26T04:57:05.780Z,63.00
2018-01-26T04:59:34.261Z,62.85
2018-01-26T05:02:02.677Z,65.52
2018-01-26T05:04:31.133Z,64.57
2018-01-26T05:06:59.592Z,65.55
2018-01-26T05:09:28.088Z,65.37
2018-01-26T05:11:56.481Z,63.48
2018-01-26T05:14:24.985Z,63.18
2018-01-26T05:16:53.461Z,62.26
2018-01-26T05:19:21.899Z,61.96
2018-01-26T05:21:50.326Z,61.95
2018-01-26T05:24:18.937Z,62.21
2018-01-26T05:26:47.413Z,62.62
2018-01-26T05:29:15.824Z,62.49
2018-01-26T05:31:44.328Z,63.93
2018-01-26T05:34:12.759Z,63.00
2018-01-26T05:36:41.213Z,62.09
2018-01-26T05:39:09.675Z,61.63
2018-01-26T05:41:38.093Z,61.82
2018-01-26T05:44:06.598Z,61.22
2018-01-26T05:46:35.056Z,61.18
2018-01-26T05:49:03.533Z,60.86
2018-01-26T05:51:31.985Z,60.74
2018-01-26T05:54:00.410Z,60.71
2018-01-26T05:56:28.870Z,60.79
2018-01-26T05:58:57.310Z,60.74
2018-01-26T06:01:25.837Z,60.61
2018-01-26T06:03:54.244Z,61.53
2018-01-26T06:06:22.661Z,60.93
2018-01-26T06:08:51.109Z,61.03
2018-01-26T06:11:19.553Z,60.94
2018-01-26T06:13:48.018Z,61.18
2018-01-26T06:16:16.464Z,62.13
2018-01-26T06:18:44.933Z,62.32
2018-01-26T06:21:13.354Z,62.39
2018-01-26T06:23:41.877Z,62.46
2018-01-26T06:26:10.379Z,63.20
2018-01-26T06:28:38.866Z,62.85
2018-01-26T06:31:07.418Z,63.14
2018-01-26T06:33:35.868Z,62.67
2018-01-26T06:36:04.324Z,62.39
2018-01-26T06:38:32.908Z,62.09
2018-01-26T06:41:01.496Z,61.99
2018-01-26T06:43:30.256Z,61.55
2018-01-26T06:45:58.829Z,61.43
2018-01-26T06:48:27.442Z,60.78
2018-01-26T06:50:56.876Z,60.76
2018-01-26T06:53:25.334Z,61.15
2018-01-26T06:55:53.997Z,60.38
2018-01-26T06:58:22.539Z,60.51
2018-01-26T07:00:51.256Z,60.19
2018-01-26T07:03:19.732Z,59.92
2018-01-26T07:05:48.259Z,59.83
2018-01-26T07:08:16.813Z,59.51
2018-01-26T07:10:45.795Z,59.39
2018-01-26T07:13:14.229Z,59.53
2018-01-26T07:15:42.680Z,59.39
2018-01-26T07:18:11.163Z,58.41
2018-01-26T07:20:39.689Z,58.66
2018-01-26T07:23:08.341Z,57.52
2018-01-26T07:25:37.034Z,57.73
2018-01-26T07:28:05.749Z,57.83
2018-01-26T07:30:34.367Z,57.08
2018-01-26T07:33:02.798Z,56.44
2018-01-26T07:35:32.219Z,55.03
2018-01-26T07:38:00.640Z,55.24
2018-01-26T07:40:29.121Z,55.22
2018-01-26T07:42:57.719Z,54.86
2018-01-26T07:45:26.136Z,54.55
2018-01-26T07:47:54.573Z,54.15
2018-01-26T07:50:23.193Z,53.81
2018-01-26T07:52:51.628Z,53.97
2018-01-26T07:55:20.043Z,54.25
2018-01-26T07:57:48.573Z,53.72
2018-01-26T08:00:17.321Z,53.92
2018-01-26T08:02:45.843Z,53.36
2018-01-26T08:05:14.276Z,53.33
2018-01-26T08:07:42.772Z,53.34
2018-01-26T08:10:11.285Z,53.47
2018-01-26T08:12:39.753Z,53.37
2018-01-26T08:15:08.169Z,53.26
2018-01-26T08:17:36.653Z,52.66
2018-01-26T08:20:05.052Z,52.25
2018-01-26T08:22:33.509Z,51.72
2018-01-26T08:25:01.974Z,50.44
2018-01-26T08:27:30.439Z,52.03
2018-01-26T08:29:58.840Z,51.38
2018-01-26T08:32:27.341Z,50.10
2018-01-26T08:34:55.894Z,51.00
2018-01-26T08:37:24.401Z,50.43
2018-01-26T08:39:52.809Z,50.68
2018-01-26T08:42:21.246Z,50.65
2018-01-26T08:44:49.684Z,49.59
2018-01-26T08:47:18.985Z,49.65
2018-01-26T08:49:47.500Z,50.28
2018-01-26T08:52:16.006Z,49.60
2018-01-26T08:54:44.482Z,48.85
2018-01-26T08:57:12.949Z,49.44
2018-01-26T08:59:41.423Z,48.44
2018-01-26T09:02:09.893Z,48.89
2018-01-26T09:04:38.300Z,47.70
2018-01-26T09:07:06.784Z,48.86
2018-01-26T09:09:35.308Z,47.49
2018-01-26T09:12:03.858Z,48.65
2018-01-26T09:14:32.277Z,47.48
2018-01-26T09:17:00.751Z,48.37
2018-01-26T09:19:29.259Z,47.96
2018-01-26T09:21:57.771Z,47.47
2018-01-26T09:24:26.173Z,47.97
2018-01-26T09:26:54.659Z,47.00
2018-01-26T09:29:23.173Z,46.81
2018-01-26T09:31:51.664Z,46.90
2018-01-26T09:34:20.212Z,46.54
2018-01-26T09:36:48.624Z,44.94
2018-01-26T09:39:17.077Z,46.85
2018-01-26T09:41:45.497Z,46.20
2018-01-26T09:44:14.011Z,44.50
2018-01-26T09:46:42.473Z,45.91
2018-01-26T09:49:10.939Z,45.53
2018-01-26T09:51:39.465Z,44.74
2018-01-26T09:54:07.925Z,45.20
2018-01-26T09:56:36.333Z,44.65
2018-01-26T09:59:04.865Z,43.98
2018-01-26T10:01:33.269Z,43.65
2018-01-26T10:04:01.933Z,44.37
2018-01-26T10:06:30.398Z,43.99
2018-01-26T10:08:58.837Z,44.08
2018-01-26T10:11:27.373Z,43.80
2018-01-26T10:13:55.873Z,43.33
2018-01-26T10:16:24.349Z,43.38
2018-01-26T10:18:52.875Z,42.21
2018-01-26T10:21:21.437Z,42.88
2018-01-26T10:23:49.902Z,42.27
2018-01-26T10:26:18.305Z,41.47
2018-01-26T10:28:46.770Z,41.69
2018-01-26T10:31:15.317Z,42.58
2018-01-26T10:33:43.761Z,42.35
2018-01-26T10:36:12.220Z,41.91
2018-01-26T10:38:40.732Z,41.09
2018-01-26T10:41:09.210Z,41.59
2018-01-26T10:43:37.616Z,41.01
2018-01-26T10:46:06.081Z,40.29
2018-01-26T10:48:34.537Z,41.52
2018-01-26T10:51:02.953Z,41.21
2018-01-26T10:53:31.394Z,41.35
2018-01-26T10:55:59.813Z,41.79
2018-01-26T10:58:28.344Z,41.12
2018-01-26T11:00:56.870Z,39.30
2018-01-26T11:03:25.346Z,39.88
2018-01-26T11:05:53.829Z,38.92
2018-01-26T11:08:22.299Z,39.01
2018-01-26T11:10:50.752Z,40.02
2018-01-26T11:13:19.253Z,38.23
2018-01-26T11:15:47.716Z,39.30
2018-01-26T11:18:16.145Z,38.71
2018-01-26T11:20:44.590Z,38.99
2018-01-26T11:23:13.024Z,39.26
2018-01-26T11:25:41.420Z,39.53
2018-01-26T11:28:09.860Z,39.44
2018-01-26T11:30:38.368Z,37.74
2018-01-26T11:33:06.867Z,38.16
2018-01-26T11:35:35.297Z,39.30
2018-01-26T11:38:03.715Z,38.19
2018-01-26T11:40:32.153Z,38.62
2018-01-26T11:43:00.557Z,39.10
2018-01-26T11:45:29.001Z,37.49
2018-01-26T11:47:57.406Z,39.00
2018-01-26T11:50:25.853Z,38.03
2018-01-26T11:52:54.325Z,37.04
2018-01-26T11:55:22.757Z,38.51
2018-01-26T11:57:51.302Z,38.20
2018-01-26T12:00:19.779Z,38.07
2018-01-26T12:02:48.277Z,37.77
2018-01-26T12:05:16.680Z,36.48
2018-01-26T12:07:45.121Z,35.31
2018-01-26T12:10:13.602Z,35.72
2018-01-26T12:12:42.048Z,36.28
2018-01-26T12:15:10.456Z,36.90
2018-01-26T12:17:38.897Z,35.69
2018-01-26T12:20:07.393Z,37.43
2018-01-26T12:22:35.912Z,35.71
2018-01-26T12:25:04.413Z,37.02
2018-01-26T12:27:32.927Z,35.88
2018-01-26T12:30:01.489Z,35.87
2018-01-26T12:32:29.961Z,36.63
2018-01-26T12:34:58.402Z,37.21
2018-01-26T12:37:26.845Z,37.13
2018-01-26T12:39:55.280Z,37.31
2018-01-26T12:42:23.820Z,37.02
2018-01-26T12:44:52.225Z,37.19
2018-01-26T12:47:20.694Z,36.55
2018-01-26T12:49:49.141Z,36.55
2018-01-26T12:52:17.609Z,36.74
2018-01-26T12:54:46.053Z,36.63
2018-01-26T12:57:14.521Z,35.58
2018-01-26T12:59:42.976Z,36.89
2018-01-26T13:02:11.446Z,36.44
2018-01-26T13:04:39.921Z,36.65
2018-01-26T13:07:08.400Z,36.73
2018-01-26T13:09:36.914Z,36.70
2018-01-26T13:12:05.361Z,36.27
2018-01-26T13:14:33.817Z,36.42
2018-01-26T13:17:02.224Z,36.75
2018-01-26T13:19:30.713Z,36.83
2018-01-26T13:21:59.169Z,36.87
2018-01-26T13:24:27.649Z,36.97
2018-01-26T13:26:56.091Z,35.59
2018-01-26T13:29:24.496Z,36.88
2018-01-26T13:31:52.957Z,35.65
2018-01-26T13:34:21.365Z,36.68
2018-01-26T13:36:49.833Z,37.18
2018-01-26T13:39:18.570Z,36.63
2018-01-26T13:41:47.066Z,37.50
2018-01-26T13:44:15.503Z,37.24
2018-01-26T13:46:43.953Z,37.32
2018-01-26T13:49:12.393Z,37.42
2018-01-26T13:51:40.806Z,37.24
2018-01-26T13:54:09.256Z,37.84
2018-01-26T13:56:37.722Z,37.47
2018-01-26T13:59:06.210Z,37.48
2018-01-26T14:01:34.654Z,37.66
2018-01-26T14:04:03.198Z,37.99
2018-01-26T14:06:31.652Z,38.02
2018-01-26T14:09:00.049Z,37.65
2018-01-26T14:11:28.521Z,38.18
2018-01-26T14:13:56.977Z,38.37
2018-01-26T14:16:25.445Z,38.75
2018-01-26T14:18:53.975Z,39.97
2018-01-26T14:21:22.462Z,39.79
2018-01-26T14:23:50.872Z,39.79
2018-01-26T14:26:19.324Z,40.11
2018-01-26T14:28:47.745Z,40.07
2018-01-26T14:31:16.192Z,40.10
2018-01-26T14:33:44.617Z,40.15
2018-01-26T14:36:13.072Z,40.07
2018-01-26T14:38:41.525Z,40.27
2018-01-26T14:41:09.974Z,40.32
2018-01-26T14:43:38.389Z,40.28
2018-01-26T14:46:06.848Z,40.32
2018-01-26T14:48:35.325Z,40.34
2018-01-26T14:51:03.861Z,40.43
2018-01-26T14:53:32.305Z,40.59
2018-01-26T14:56:00.833Z,40.75
2018-01-26T14:58:29.273Z,40.80
2018-01-26T15:00:57.685Z,41.03
2018-01-26T15:03:26.125Z,41.05
2018-01-26T15:05:54.538Z,40.97
2018-01-26T15:08:23.034Z,41.00
2018-01-26T15:10:51.537Z,41.00
2018-01-26T15:13:19.976Z,41.06
2018-01-26T15:15:48.405Z,41.24
2018-01-26T15:18:16.846Z,41.51
2018-01-26T15:20:45.281Z,41.49
2018-01-26T15:23:13.812Z,41.43
2018-01-26T15:25:42.233Z,41.61
2018-01-26T15:28:10.788Z,41.71
2018-01-26T15:30:39.228Z,41.74
2018-01-26T15:33:07.653Z,41.72
2018-01-26T15:35:37.261Z,41.82
2018-01-26T15:38:05.715Z,42.04
2018-01-26T15:40:34.217Z,42.35
2018-01-26T15:43:02.649Z,42.37
2018-01-26T15:45:31.101Z,42.66
2018-01-26T15:47:59.547Z,42.79
2018-01-26T15:50:28.037Z,42.71
2018-01-26T15:52:56.523Z,43.00
2018-01-26T15:55:24.981Z,43.11
2018-01-26T15:57:53.417Z,42.92
2018-01-26T16:00:21.861Z,43.06
2018-01-26T16:02:50.366Z,42.97
2018-01-26T16:05:18.853Z,43.63
2018-01-26T16:07:47.337Z,43.52
2018-01-26T16:10:15.749Z,43.42
2018-01-26T16:12:44.192Z,43.77
2018-01-26T16:15:12.660Z,43.67
2018-01-26T16:17:41.056Z,44.19
2018-01-26T16:20:09.589Z,44.12
2018-01-26T16:22:38.097Z,44.20
2018-01-26T16:25:06.575Z,44.34
2018-01-26T16:27:35.109Z,44.45
2018-01-26T16:30:03.658Z,44.78
2018-01-26T16:32:32.180Z,45.01
2018-01-26T16:35:00.670Z,45.53
2018-01-26T16:37:29.141Z,45.47
2018-01-26T16:39:57.581Z,45.53
2018-01-26T16:42:26.136Z,45.96
2018-01-26T16:44:54.580Z,49.75
2018-01-26T16:47:23.017Z,46.93
2018-01-26T16:49:51.455Z,46.95
2018-01-26T16:52:19.969Z,49.20
2018-01-26T16:54:48.385Z,48.12
2018-01-26T16:57:16.792Z,47.70
2018-01-26T16:59:45.293Z,48.17
2018-01-26T17:02:13.757Z,47.82
2018-01-26T17:04:42.205Z,47.78
2018-01-26T17:07:10.605Z,47.94
2018-01-26T17:09:39.065Z,48.17
2018-01-26T17:12:07.524Z,47.79
2018-01-26T17:14:35.996Z,49.39
2018-01-26T17:17:04.405Z,51.09
2018-01-26T17:19:32.955Z,49.82
2018-01-26T17:22:01.416Z,49.13
2018-01-26T17:24:29.836Z,49.34
2018-01-26T17:26:58.322Z,49.38
2018-01-26T17:29:26.724Z,49.78
2018-01-26T17:31:55.230Z,50.18
2018-01-26T17:34:23.641Z,49.66
2018-01-26T17:36:52.076Z,49.93
2018-01-26T17:39:20.522Z,50.71
2018-01-26T17:41:48.976Z,52.84
2018-01-26T17:44:17.412Z,51.39
2018-01-26T17:46:45.862Z,51.23
2018-01-26T17:49:14.264Z,51.81
2018-01-26T17:51:42.708Z,51.08
2018-01-26T17:54:11.129Z,50.95
2018-01-26T17:56:39.601Z,51.25
2018-01-26T17:59:08.004Z,51.12
2018-01-26T18:01:36.395Z,51.38
2018-01-26T18:04:04.897Z,50.62
2018-01-26T18:06:33.385Z,50.71
2018-01-26T18:09:01.784Z,51.54
2018-01-26T18:11:30.346Z,51.41
2018-01-26T18:13:58.804Z,51.14
2018-01-26T18:16:27.292Z,51.26
2018-01-26T18:18:55.692Z,51.53
2018-01-26T18:21:24.193Z,51.55
2018-01-26T18:23:52.601Z,51.51
2018-01-26T18:26:21.109Z,51.97
2018-01-26T18:28:49.513Z,51.78
2018-01-26T18:31:17.913Z,51.88
2018-01-26T18:33:46.353Z,51.60
2018-01-26T18:36:14.814Z,53.04
2018-01-26T18:38:43.285Z,52.30
2018-01-26T18:41:11.786Z,52.54
2018-01-26T18:43:40.301Z,52.37
2018-01-26T18:46:08.788Z,52.29
2018-01-26T18:48:37.289Z,55.46
2018-01-26T18:51:05.727Z,53.37
2018-01-26T18:53:34.170Z,53.09
2018-01-26T18:56:02.621Z,52.92
2018-01-26T18:58:31.111Z,52.48
2018-01-26T19:00:59.537Z,52.57
2018-01-26T19:03:28.026Z,52.84
2018-01-26T19:05:56.479Z,53.82
2018-01-26T19:08:24.936Z,53.25
2018-01-26T19:10:53.444Z,53.31
2018-01-26T19:13:21.896Z,53.14
2018-01-26T19:15:50.384Z,53.72
2018-01-26T19:18:18.801Z,54.27
2018-01-26T19:20:47.309Z,53.35
2018-01-26T19:23:15.753Z,53.37
2018-01-26T19:25:44.225Z,54.41
2018-01-26T19:28:12.697Z,53.58
2018-01-26T19:30:41.129Z,53.39
2018-01-26T19:33:09.604Z,54.39
2018-01-26T19:35:38.129Z,57.06
2018-01-26T19:38:06.565Z,58.66
2018-01-26T19:40:34.972Z,55.33
2018-01-26T19:43:03.394Z,54.95
2018-01-26T19:45:31.897Z,54.39
2018-01-26T19:48:00.317Z,56.41
2018-01-26T19:50:28.774Z,54.87
2018-01-26T19:52:57.249Z,54.74
2018-01-26T19:55:25.731Z,54.37
2018-01-26T19:57:54.205Z,59.06
2018-01-26T20:00:23.513Z,57.09
2018-01-26T20:02:52.012Z,55.82
2018-01-26T20:05:50.729Z,58.90
2018-01-26T20:08:28.576Z,56.72
2018-01-26T20:10:57.106Z,55.75
2018-01-26T20:13:28.399Z,55.50
2018-01-26T20:15:56.910Z,56.92
2018-01-26T20:18:25.393Z,56.25
2018-01-26T20:20:54.817Z,55.91
2018-01-26T20:23:23.240Z,56.41
2018-01-26T20:25:51.760Z,55.77
2018-01-26T20:28:20.184Z,56.79
2018-01-26T20:30:48.640Z,55.39
2018-01-26T20:33:17.106Z,55.75
2018-01-26T20:35:45.614Z,55.73
2018-01-26T20:38:14.237Z,56.10
2018-01-26T20:40:42.676Z,56.31
2018-01-26T20:43:11.124Z,55.44
2018-01-26T20:45:39.576Z,57.16
2018-01-26T20:48:08.021Z,60.38
2018-01-26T20:50:36.505Z,57.32
2018-01-26T20:53:04.989Z,57.42
2018-01-26T20:55:33.478Z,57.18
2018-01-26T20:58:01.888Z,56.77
2018-01-26T21:00:30.393Z,56.85
2018-01-26T21:02:58.876Z,56.92
2018-01-26T21:05:27.285Z,56.70
2018-01-26T21:07:55.830Z,57.03
2018-01-26T21:10:24.247Z,57.03
2018-01-26T21:12:52.811Z,56.56
2018-01-26T21:15:21.333Z,56.53
2018-01-26T21:17:49.748Z,56.27
2018-01-26T21:20:18.248Z,56.40
2018-01-26T21:22:46.697Z,56.18
2018-01-26T21:25:15.132Z,57.58
2018-01-26T21:27:43.629Z,56.34
2018-01-26T21:30:12.089Z,56.79
2018-01-26T21:32:40.532Z,56.54
2018-01-26T21:35:08.945Z,55.97
2018-01-26T21:37:37.488Z,58.09
2018-01-26T21:40:05.900Z,56.94
2018-01-26T21:42:34.328Z,57.07
2018-01-26T21:45:02.800Z,56.63
2018-01-26T21:47:31.216Z,57.86
2018-01-26T21:49:59.733Z,57.68
2018-01-26T21:52:28.226Z,60.40
2018-01-26T21:54:56.685Z,58.02
2018-01-26T21:57:25.176Z,59.45
2018-01-26T21:59:53.705Z,58.81
2018-01-26T22:02:22.184Z,57.76
2018-01-26T22:04:56.194Z,57.63
2018-01-26T22:07:30.289Z,57.85
2018-01-26T22:09:58.732Z,58.13
2018-01-26T22:12:27.228Z,57.44
2018-01-26T22:14:55.698Z,57.83
2018-01-26T22:17:24.268Z,57.48
2018-01-26T22:19:52.785Z,59.73
2018-01-26T22:22:21.281Z,58.49
2018-01-26T22:24:49.753Z,57.53
2018-01-26T22:27:18.197Z,59.37
2018-01-26T22:29:46.608Z,63.57
2018-01-26T22:32:15.060Z,65.28
2018-01-26T22:34:43.523Z,62.75
2018-01-26T22:37:11.950Z,62.58
2018-01-26T22:39:40.409Z,61.70
2018-01-26T22:42:08.893Z,61.46
2018-01-26T22:44:37.402Z,60.24
2018-01-26T22:47:05.813Z,60.64
2018-01-26T22:49:34.301Z,61.80
2018-01-26T22:52:02.768Z,61.72
2018-01-26T22:54:31.295Z,63.76
2018-01-26T22:56:59.824Z,65.69
2018-01-26T22:59:28.391Z,66.25
2018-01-26T23:01:56.805Z,63.89
2018-01-26T23:04:25.320Z,62.78
2018-01-26T23:06:53.756Z,62.37
2018-01-26T23:09:22.187Z,63.72
2018-01-26T23:11:50.654Z,62.44
2018-01-26T23:14:19.068Z,60.95
2018-01-26T23:16:47.565Z,61.07
2018-01-26T23:19:15.972Z,63.02
2018-01-26T23:21:44.389Z,62.46
2018-01-26T23:24:12.913Z,60.58
2018-01-26T23:26:41.388Z,60.38
2018-01-26T23:29:09.829Z,60.00
2018-01-26T23:31:38.262Z,59.87
2018-01-26T23:34:06.769Z,60.10
2018-01-26T23:36:35.213Z,61.04
2018-01-26T23:39:03.741Z,60.01
2018-01-26T23:41:32.207Z,60.78
2018-01-26T23:44:00.701Z,61.45
2018-01-26T23:46:29.232Z,62.54
2018-01-26T23:48:57.694Z,65.10
2018-01-26T23:51:26.118Z,65.20
2018-01-26T23:53:54.657Z,64.77
2018-01-26T23:56:23.149Z,64.32
2018-01-26T23:58:51.690Z,63.76
